Rechercher aéroport 
image banner adimage banner adimage banner ad
image banner ad

CA79 - The Ritz-Carlton Hotel Company

Situé à Marina Del Rey, United States

ICAO - CA79, IATA -

Données fournies par Airmate  

Information générale

Coordonnées: N33°59'4" W118°27'0"
Élévation : 50 feet MSL.
Variation magnétique : 14° East
Voir autres Aéroports à California

Données opérationnelles

Special qualification required
Heure actuelle UTC:
Heure actuelle locale:
Météo à : KSMO - Santa Monica Muni ( 3 km )
METAR: KSMO 292151Z 23011KT 10SM CLR 23/14 A2989 RMK AO2 SLP119 T02280139
TAF: KSMO 291736Z 2918/3018 21006KT P6SM SCT005 FM292000 23008KT P6SM SKC FM300400 VRB03KT P6SM SKC FM300900 VRB03KT P6SM OVC008
Voir NOTAMs / SUP AIP / TFR affectant cet aéroport [VIEW]
Fréquences de communication: [VIEW]

Pistes:

Coordonnées de l'aéroport

Adresse: Marina Del Rey United States

Vue satellite de CA79